Time;durP1;ratioP1;P1;durP2;ratioP2;P2;SDS_P1;SDS_P2;PMS_P1;PMS_P2;Temp;Humidity;BMP_temperature;BMP_pressure;BME280_temperature;BME280_humidity;BME280_pressure;Samples;Min_cycle;Max_cycle;Signal;HPM_P1;HPM_P2
2023/03/03 00:01:09;;;;;;;195.13;91.63;;;0.40;95.10;;;;;;4960692;28;20177;-91
2023/03/03 00:03:35;;;;;;;198.40;91.57;;;0.40;95.20;;;;;;4960990;28;20227;-90
2023/03/03 00:06:03;;;;;;;231.10;91.97;;;0.40;95.20;;;;;;4961950;28;20176;-90
2023/03/03 00:08:29;;;;;;;233.13;84.83;;;0.40;95.20;;;;;;4960362;28;20185;-90
2023/03/03 00:10:55;;;;;;;156.53;84.37;;;0.40;95.20;;;;;;4960264;28;20215;-91
2023/03/03 00:13:23;;;;;;;227.37;90.13;;;0.40;95.30;;;;;;4961972;28;20180;-91
2023/03/03 00:15:50;;;;;;;174.43;94.00;;;0.30;95.40;;;;;;4971760;28;20546;-92
2023/03/03 00:18:36;;;;;;;162.50;86.43;;;0.40;95.40;;;;;;4964874;28;20200;-91
2023/03/03 00:21:03;;;;;;;122.30;91.87;;;0.40;95.50;;;;;;4969625;28;20251;-91
2023/03/03 00:23:30;;;;;;;157.57;87.53;;;0.50;95.50;;;;;;4967088;28;20213;-91
2023/03/03 00:25:56;;;;;;;227.47;91.67;;;0.40;95.50;;;;;;4974351;28;20177;-90
2023/03/03 00:28:26;;;;;;;127.67;89.60;;;0.40;95.50;;;;;;4962624;28;20708;-91
2023/03/03 00:30:54;;;;;;;119.73;83.00;;;0.40;95.50;;;;;;4969605;28;20270;-91
2023/03/03 00:33:37;;;;;;;189.70;95.30;;;0.40;95.60;;;;;;4970544;28;20178;-90
2023/03/03 00:36:37;;;;;;;155.00;91.97;;;0.40;95.60;;;;;;4971309;28;20276;-92
2023/03/03 00:39:32;;;;;;;182.03;94.00;;;0.30;95.60;;;;;;4967348;28;20618;-90
2023/03/03 00:41:59;;;;;;;148.97;94.17;;;0.30;95.60;;;;;;4960588;28;20268;-90
2023/03/03 00:44:41;;;;;;;175.17;95.27;;;0.30;95.60;;;;;;4960362;28;20182;-92
2023/03/03 00:47:30;;;;;;;192.73;90.20;;;0.30;95.70;;;;;;4961058;28;20200;-91
2023/03/03 00:50:04;;;;;;;193.07;94.97;;;0.30;95.70;;;;;;4961349;28;20219;-91
2023/03/03 00:52:34;;;;;;;254.13;91.97;;;0.30;95.70;;;;;;4961620;28;20194;-90
2023/03/03 00:54:59;;;;;;;184.10;91.97;;;0.20;95.70;;;;;;4962009;28;20602;-92
2023/03/03 00:57:25;;;;;;;131.70;93.27;;;0.20;95.80;;;;;;4961280;28;20238;-91
2023/03/03 00:59:51;;;;;;;155.00;88.97;;;0.20;95.80;;;;;;4962582;28;20187;-91
2023/03/03 01:02:16;;;;;;;102.20;91.67;;;0.20;95.80;;;;;;4962171;28;20566;-92
2023/03/03 01:04:46;;;;;;;173.23;93.67;;;0.30;95.80;;;;;;4962238;28;20190;-91
2023/03/03 01:07:11;;;;;;;208.50;100.13;;;0.40;95.80;;;;;;4961335;28;20210;-92
2023/03/03 01:09:37;;;;;;;235.63;101.47;;;0.30;95.80;;;;;;4962485;28;20267;-92
2023/03/03 01:12:02;;;;;;;196.53;99.43;;;0.30;95.80;;;;;;4962575;28;20181;-91
2023/03/03 01:14:28;;;;;;;263.17;101.63;;;0.30;95.80;;;;;;4961722;28;20636;-91
2023/03/03 01:16:54;;;;;;;205.27;94.20;;;0.10;95.80;;;;;;4961799;28;20256;-92
2023/03/03 01:19:19;;;;;;;265.97;97.87;;;0.20;95.90;;;;;;4961416;28;20207;-91
2023/03/03 01:21:45;;;;;;;251.70;101.33;;;0.20;95.90;;;;;;4962112;28;20647;-91
2023/03/03 01:24:10;;;;;;;173.77;95.83;;;0.20;95.90;;;;;;4962369;28;20312;-92
2023/03/03 01:26:36;;;;;;;260.97;108.67;;;0.30;95.90;;;;;;4961654;28;20208;-92
2023/03/03 01:29:01;;;;;;;121.27;98.97;;;0.20;95.90;;;;;;4960744;28;20189;-91
2023/03/03 01:31:27;;;;;;;216.37;102.17;;;0.20;95.90;;;;;;4961233;28;20191;-91
2023/03/03 01:33:52;;;;;;;270.87;99.80;;;0.20;96.00;;;;;;4961099;28;20362;-92
2023/03/03 01:36:26;;;;;;;304.70;99.07;;;0.10;95.90;;;;;;4962272;28;20259;-91
2023/03/03 01:38:51;;;;;;;264.47;94.87;;;0.00;96.00;;;;;;4960966;28;20185;-91
2023/03/03 01:41:17;;;;;;;103.30;91.53;;;0.10;96.00;;;;;;4961678;28;20557;-91
2023/03/03 01:43:45;;;;;;;165.27;94.47;;;0.10;96.10;;;;;;4960996;28;20184;-91
2023/03/03 01:46:23;;;;;;;258.17;100.37;;;0.20;96.10;;;;;;4961675;28;20307;-91
2023/03/03 01:48:54;;;;;;;234.47;98.77;;;0.10;96.00;;;;;;4961597;28;20266;-92
2023/03/03 01:51:24;;;;;;;240.53;100.97;;;0.10;96.00;;;;;;4963261;28;20184;-91
2023/03/03 01:53:55;;;;;;;264.17;103.13;;;0.10;96.10;;;;;;4961910;28;20183;-91
2023/03/03 01:56:21;;;;;;;180.70;101.37;;;0.20;96.10;;;;;;4962629;28;20197;-92
2023/03/03 01:59:02;;;;;;;262.03;104.37;;;0.30;96.10;;;;;;4961859;28;20181;-91
2023/03/03 02:01:30;;;;;;;184.43;101.27;;;0.20;96.10;;;;;;4963048;28;20180;-91
2023/03/03 02:03:56;;;;;;;152.63;108.27;;;0.10;96.10;;;;;;4962032;28;20185;-92
2023/03/03 02:06:26;;;;;;;218.13;102.33;;;0.20;96.10;;;;;;4961611;28;20212;-91
2023/03/03 02:08:58;;;;;;;254.10;104.67;;;0.00;96.10;;;;;;4961375;28;20178;-91
2023/03/03 02:11:25;;;;;;;243.37;109.23;;;0.10;96.10;;;;;;4979381;28;20174;-91
2023/03/03 02:13:51;;;;;;;167.03;103.37;;;0.10;96.10;;;;;;4962760;28;20181;-92
2023/03/03 02:16:17;;;;;;;223.93;111.77;;;0.10;96.10;;;;;;4963949;28;20206;-91
2023/03/03 02:18:42;;;;;;;259.33;113.27;;;0.10;96.10;;;;;;4963570;28;20205;-91
2023/03/03 02:21:13;;;;;;;253.47;112.83;;;0.00;96.10;;;;;;4963613;28;20190;-91
2023/03/03 02:24:14;;;;;;;170.37;112.67;;;0.10;96.10;;;;;;4963075;28;20619;-91
2023/03/03 02:26:40;;;;;;;168.87;109.53;;;0.10;96.10;;;;;;4963334;28;20226;-91
2023/03/03 02:29:08;;;;;;;207.77;109.20;;;0.00;96.10;;;;;;4962423;28;20209;-91
2023/03/03 02:31:33;;;;;;;239.13;115.17;;;0.10;96.10;;;;;;4963111;28;20186;-91
2023/03/03 02:33:59;;;;;;;238.13;112.23;;;0.00;96.10;;;;;;4963906;28;20265;-92
2023/03/03 02:36:29;;;;;;;224.23;110.00;;;0.00;96.10;;;;;;4963782;28;20203;-91
2023/03/03 02:38:58;;;;;;;234.87;103.13;;;-0.10;96.20;;;;;;4964185;28;20166;-91
2023/03/03 02:41:30;;;;;;;181.07;107.10;;;0.00;96.20;;;;;;4965897;28;20532;-91
2023/03/03 02:44:00;;;;;;;237.73;102.80;;;0.00;96.20;;;;;;4968621;28;20224;-91
2023/03/03 02:46:30;;;;;;;213.57;104.43;;;0.00;96.20;;;;;;4968764;28;20278;-91
2023/03/03 02:48:56;;;;;;;247.07;96.40;;;0.00;96.20;;;;;;4967421;28;20644;-92
2023/03/03 02:51:22;;;;;;;171.80;99.43;;;0.00;96.20;;;;;;4969145;28;20265;-91
2023/03/03 02:53:47;;;;;;;225.57;107.40;;;0.10;96.30;;;;;;4968644;28;20185;-91
2023/03/03 02:56:13;;;;;;;118.03;103.17;;;0.00;96.20;;;;;;4968297;28;20254;-91
2023/03/03 02:58:38;;;;;;;240.27;105.17;;;0.00;96.20;;;;;;4968716;28;20214;-91
2023/03/03 03:01:04;;;;;;;149.73;94.70;;;0.00;96.20;;;;;;4967259;28;20226;-91
2023/03/03 03:03:30;;;;;;;109.37;99.43;;;0.00;96.20;;;;;;4967100;28;20274;-91
2023/03/03 03:05:55;;;;;;;121.43;98.30;;;0.00;96.20;;;;;;4967899;28;20189;-91
2023/03/03 03:08:21;;;;;;;114.23;98.37;;;0.10;96.30;;;;;;4968511;28;20253;-91
2023/03/03 03:10:48;;;;;;;129.57;103.77;;;0.20;96.30;;;;;;4968056;28;20297;-91
2023/03/03 03:13:13;;;;;;;109.97;98.87;;;0.20;96.30;;;;;;4968450;28;20209;-91
2023/03/03 03:15:39;;;;;;;206.47;104.70;;;0.10;96.30;;;;;;4968594;28;20174;-91
2023/03/03 03:18:05;;;;;;;181.93;102.17;;;0.00;96.20;;;;;;4968221;28;20286;-91
2023/03/03 03:20:30;;;;;;;135.77;106.17;;;0.00;96.20;;;;;;4968414;28;20227;-91
2023/03/03 03:22:56;;;;;;;197.60;103.00;;;0.00;96.20;;;;;;4968238;28;20185;-91
2023/03/03 03:25:21;;;;;;;110.90;100.63;;;0.00;96.30;;;;;;4967982;28;20261;-91
2023/03/03 03:27:47;;;;;;;114.03;104.40;;;0.00;96.30;;;;;;4967547;28;20227;-91
2023/03/03 03:30:13;;;;;;;156.87;109.90;;;0.20;96.30;;;;;;4968151;28;20209;-91
2023/03/03 03:32:38;;;;;;;112.93;103.30;;;0.10;96.30;;;;;;4967392;28;20185;-91
2023/03/03 03:35:04;;;;;;;186.83;106.87;;;0.20;96.30;;;;;;4967858;28;20174;-91
2023/03/03 03:37:30;;;;;;;111.20;101.13;;;0.00;96.20;;;;;;4967455;28;20192;-91
2023/03/03 03:39:55;;;;;;;153.93;104.10;;;0.00;96.30;;;;;;4967251;28;20248;-91
2023/03/03 03:42:21;;;;;;;221.87;102.57;;;0.00;96.20;;;;;;4967283;28;20780;-91
2023/03/03 03:44:47;;;;;;;155.23;105.70;;;-0.10;96.30;;;;;;4968149;28;20193;-92
2023/03/03 03:47:12;;;;;;;134.17;103.67;;;0.00;96.30;;;;;;4985655;28;20220;-91
2023/03/03 03:49:38;;;;;;;125.33;105.33;;;0.00;96.30;;;;;;4967704;28;20206;-91
2023/03/03 03:52:03;;;;;;;130.63;103.43;;;0.00;96.30;;;;;;4967144;28;20181;-91
2023/03/03 03:54:29;;;;;;;185.43;102.47;;;-0.10;96.30;;;;;;4967533;28;20184;-91
2023/03/03 03:56:54;;;;;;;275.07;110.73;;;-0.20;96.30;;;;;;4966253;28;20301;-91
2023/03/03 03:59:20;;;;;;;146.73;101.03;;;-0.20;96.30;;;;;;4967603;28;20195;-91
2023/03/03 04:01:47;;;;;;;114.40;103.03;;;-0.10;96.30;;;;;;4968657;28;20192;-91
2023/03/03 04:04:13;;;;;;;186.73;106.63;;;-0.10;96.30;;;;;;4968897;28;20185;-91
2023/03/03 04:06:38;;;;;;;214.00;107.40;;;-0.10;96.30;;;;;;4967569;28;20224;-90
2023/03/03 04:09:04;;;;;;;112.03;102.10;;;-0.10;96.30;;;;;;4968684;28;20231;-91
2023/03/03 04:11:30;;;;;;;148.17;101.30;;;-0.10;96.30;;;;;;4969164;28;20185;-91
2023/03/03 04:13:55;;;;;;;218.73;107.23;;;-0.20;96.30;;;;;;4970986;28;20178;-91
2023/03/03 04:16:21;;;;;;;188.83;101.83;;;-0.20;96.30;;;;;;4970585;28;20204;-91
2023/03/03 04:18:46;;;;;;;132.90;101.13;;;-0.30;96.30;;;;;;4970378;28;20234;-91
2023/03/03 04:21:13;;;;;;;247.20;103.23;;;-0.40;96.30;;;;;;4971596;28;20189;-91
2023/03/03 04:23:39;;;;;;;152.80;93.33;;;-0.40;96.30;;;;;;4971428;28;20248;-90
2023/03/03 04:26:05;;;;;;;162.20;93.67;;;-0.40;96.30;;;;;;4971280;28;20182;-91
2023/03/03 04:28:30;;;;;;;144.20;95.37;;;-0.30;96.30;;;;;;4973154;28;20194;-91
2023/03/03 04:30:56;;;;;;;130.00;95.80;;;-0.40;96.40;;;;;;4972346;28;20222;-91
2023/03/03 04:33:21;;;;;;;141.47;92.57;;;-0.40;96.40;;;;;;4971287;28;20559;-91
2023/03/03 04:35:47;;;;;;;202.20;97.07;;;-0.40;96.40;;;;;;4970807;28;20179;-91
2023/03/03 04:38:14;;;;;;;156.30;90.53;;;-0.30;96.40;;;;;;4970326;28;20195;-91
2023/03/03 04:40:40;;;;;;;159.37;95.47;;;-0.30;96.40;;;;;;4971076;28;20186;-92
2023/03/03 04:43:06;;;;;;;117.53;89.53;;;-0.30;96.40;;;;;;4971526;28;20251;-91
2023/03/03 04:45:32;;;;;;;101.77;92.77;;;-0.30;96.40;;;;;;4986712;28;20233;-91
2023/03/03 04:47:57;;;;;;;153.10;93.13;;;-0.40;96.40;;;;;;4971703;28;20254;-91
2023/03/03 04:50:23;;;;;;;149.67;87.90;;;-0.30;96.40;;;;;;4970237;28;20297;-91
2023/03/03 04:52:48;;;;;;;149.10;90.93;;;-0.30;96.40;;;;;;4972718;28;20179;-91
2023/03/03 04:55:15;;;;;;;106.53;91.57;;;-0.40;96.40;;;;;;4972458;28;20189;-91
2023/03/03 04:57:41;;;;;;;122.43;87.53;;;-0.30;96.50;;;;;;4973192;28;20681;-92
2023/03/03 05:00:08;;;;;;;134.50;86.97;;;-0.30;96.50;;;;;;4971758;28;20288;-91
2023/03/03 05:02:34;;;;;;;133.27;89.40;;;-0.40;96.40;;;;;;4971439;28;20187;-91
2023/03/03 05:04:59;;;;;;;145.80;95.07;;;-0.40;96.50;;;;;;4969219;28;20661;-91
2023/03/03 05:07:25;;;;;;;172.07;92.53;;;-0.30;96.50;;;;;;4969703;28;20199;-92
2023/03/03 05:09:51;;;;;;;96.90;87.30;;;-0.40;96.50;;;;;;4969127;28;20208;-91
2023/03/03 05:12:17;;;;;;;111.00;88.93;;;-0.40;96.50;;;;;;4969468;28;20293;-90
2023/03/03 05:14:42;;;;;;;94.33;84.90;;;-0.30;96.50;;;;;;4969520;28;20645;-91
2023/03/03 05:17:08;;;;;;;94.40;85.63;;;-0.30;96.50;;;;;;4968571;28;20202;-91
2023/03/03 05:19:34;;;;;;;129.57;91.07;;;-0.10;96.50;;;;;;4968739;28;20729;-92
2023/03/03 05:22:00;;;;;;;123.90;88.07;;;-0.20;96.50;;;;;;4968440;28;20184;-91
2023/03/03 05:24:26;;;;;;;95.13;87.53;;;-0.20;96.50;;;;;;4968112;28;20181;-91
2023/03/03 05:26:52;;;;;;;105.40;95.03;;;-0.20;96.50;;;;;;4968222;28;20201;-91
2023/03/03 05:29:17;;;;;;;116.43;95.47;;;-0.10;96.50;;;;;;4968315;28;20738;-91
2023/03/03 05:31:43;;;;;;;147.97;97.27;;;-0.10;96.50;;;;;;4968814;28;20180;-91
2023/03/03 05:34:08;;;;;;;153.70;100.37;;;-0.20;96.50;;;;;;4968572;28;20177;-91
2023/03/03 05:36:34;;;;;;;149.33;97.20;;;-0.30;96.50;;;;;;4968132;28;20200;-91
2023/03/03 05:38:59;;;;;;;104.60;93.70;;;-0.40;96.50;;;;;;4967428;28;20173;-92
2023/03/03 05:41:25;;;;;;;227.10;89.87;;;-0.40;96.50;;;;;;4967030;28;20183;-91
2023/03/03 05:43:51;;;;;;;165.97;92.60;;;-0.40;96.50;;;;;;4967754;28;20205;-91
2023/03/03 05:46:16;;;;;;;167.70;95.17;;;-0.40;96.50;;;;;;4967289;28;20206;-91
2023/03/03 05:48:42;;;;;;;118.67;90.37;;;-0.30;96.50;;;;;;4968906;28;20647;-91
2023/03/03 05:51:07;;;;;;;128.53;94.23;;;-0.30;96.50;;;;;;4968030;28;20230;-91
2023/03/03 05:53:33;;;;;;;119.97;90.77;;;-0.30;96.60;;;;;;4968076;28;20181;-91
2023/03/03 05:55:59;;;;;;;100.23;89.00;;;-0.30;96.60;;;;;;4967937;28;20548;-91
2023/03/03 05:58:24;;;;;;;154.53;89.27;;;-0.30;96.60;;;;;;4967648;28;20193;-91
2023/03/03 06:00:50;;;;;;;146.77;88.57;;;-0.20;96.60;;;;;;4967308;28;20184;-90
2023/03/03 06:03:15;;;;;;;109.07;89.33;;;-0.30;96.60;;;;;;4965750;28;20190;-91
2023/03/03 06:05:41;;;;;;;197.63;93.93;;;-0.10;96.60;;;;;;4984354;28;20175;-91
2023/03/03 06:08:07;;;;;;;100.67;90.93;;;-0.30;96.60;;;;;;4966946;28;20213;-91
2023/03/03 06:10:32;;;;;;;141.70;90.63;;;-0.30;96.60;;;;;;4967229;28;20232;-91
2023/03/03 06:12:58;;;;;;;101.40;93.03;;;-0.30;96.60;;;;;;4967728;28;20176;-91
2023/03/03 06:15:23;;;;;;;157.90;90.47;;;-0.30;96.60;;;;;;4984975;28;20174;-91
2023/03/03 06:17:49;;;;;;;148.87;99.10;;;-0.20;96.60;;;;;;4970597;28;20219;-91
2023/03/03 06:20:15;;;;;;;130.33;94.43;;;-0.20;96.60;;;;;;4970441;28;20247;-91
2023/03/03 06:22:40;;;;;;;126.37;95.77;;;-0.20;96.60;;;;;;4969647;28;20185;-91
2023/03/03 06:25:06;;;;;;;166.57;102.73;;;-0.10;96.60;;;;;;4969547;28;20186;-91
2023/03/03 06:27:32;;;;;;;163.50;101.80;;;-0.20;96.60;;;;;;4965465;28;20298;-91
2023/03/03 06:29:57;;;;;;;151.00;96.57;;;-0.30;96.60;;;;;;4969502;28;20203;-91
2023/03/03 06:32:23;;;;;;;145.80;99.50;;;-0.30;96.60;;;;;;4969790;28;20172;-91
2023/03/03 06:34:49;;;;;;;163.73;95.40;;;-0.30;96.60;;;;;;4969123;28;20183;-91
2023/03/03 06:37:14;;;;;;;143.90;94.03;;;-0.30;96.60;;;;;;4968699;28;20201;-91
2023/03/03 06:39:40;;;;;;;114.47;99.80;;;-0.30;96.60;;;;;;4968560;28;20681;-91
2023/03/03 06:42:08;;;;;;;169.37;99.07;;;-0.10;96.60;;;;;;4968472;28;20211;-91
2023/03/03 06:44:34;;;;;;;113.10;95.37;;;-0.20;96.60;;;;;;4969060;28;20208;-91
2023/03/03 06:47:00;;;;;;;108.13;93.83;;;-0.20;96.60;;;;;;4968848;28;20236;-91
2023/03/03 06:49:25;;;;;;;134.00;96.50;;;-0.20;96.70;;;;;;4969268;28;20207;-91
2023/03/03 06:51:51;;;;;;;109.97;98.57;;;-0.10;96.70;;;;;;4970090;28;20168;-91
2023/03/03 06:54:19;;;;;;;126.00;97.83;;;0.00;96.70;;;;;;4971104;28;20191;-91
2023/03/03 06:56:46;;;;;;;124.00;94.63;;;0.00;96.70;;;;;;4969725;28;20201;-91
2023/03/03 06:59:18;;;;;;;99.97;91.07;;;0.00;96.70;;;;;;4969127;28;20189;-91
2023/03/03 07:01:46;;;;;;;121.50;99.20;;;0.00;96.70;;;;;;4967757;28;20168;-91
2023/03/03 07:04:25;;;;;;;156.77;99.00;;;0.00;96.70;;;;;;4966849;28;20188;-91
2023/03/03 07:06:50;;;;;;;121.60;96.77;;;0.00;96.70;;;;;;4967258;28;20196;-91
2023/03/03 07:09:24;;;;;;;154.10;101.20;;;0.00;96.70;;;;;;4968318;28;20208;-91
2023/03/03 07:11:51;;;;;;;152.63;101.33;;;0.00;96.70;;;;;;4966907;28;20192;-92
2023/03/03 07:14:18;;;;;;;170.67;101.77;;;0.00;96.70;;;;;;4967085;28;20332;-91
2023/03/03 07:16:44;;;;;;;134.63;97.43;;;0.10;96.80;;;;;;4967089;28;20224;-91
2023/03/03 07:19:27;;;;;;;147.83;90.83;;;0.00;96.70;;;;;;4964512;28;20196;-91
2023/03/03 07:21:53;;;;;;;146.03;93.07;;;0.10;96.80;;;;;;4964713;28;20169;-91
2023/03/03 07:24:26;;;;;;;119.03;92.60;;;0.10;96.70;;;;;;4964641;28;20231;-91
2023/03/03 07:27:05;;;;;;;108.10;87.57;;;0.10;96.80;;;;;;4963805;28;20703;-91
2023/03/03 07:29:32;;;;;;;127.53;92.97;;;0.20;96.80;;;;;;4964147;28;20230;-91
2023/03/03 07:32:00;;;;;;;125.70;95.23;;;0.20;96.80;;;;;;4965854;28;20263;-91
2023/03/03 07:34:36;;;;;;;108.40;88.67;;;0.20;96.80;;;;;;4964730;28;20550;-90
2023/03/03 07:37:29;;;;;;;109.17;86.07;;;0.30;96.80;;;;;;4964131;28;20200;-90
2023/03/03 07:39:55;;;;;;;109.37;86.17;;;0.30;96.90;;;;;;4960589;28;20193;-89
2023/03/03 07:42:38;;;;;;;98.57;87.43;;;0.30;96.90;;;;;;4976686;28;20193;-90
2023/03/03 07:45:27;;;;;;;95.87;81.83;;;0.40;96.90;;;;;;4959581;28;20170;-90
2023/03/03 07:48:29;;;;;;;115.90;80.50;;;0.40;96.90;;;;;;4962758;28;20197;-91
2023/03/03 07:51:11;;;;;;;120.97;82.80;;;0.40;96.90;;;;;;4931125;28;20685;-92
2023/03/03 07:53:37;;;;;;;129.97;78.80;;;0.50;96.90;;;;;;4985545;28;20649;-91
2023/03/03 07:56:15;;;;;;;109.97;76.20;;;0.50;96.90;;;;;;4987797;28;20184;-91
2023/03/03 07:58:42;;;;;;;120.93;74.80;;;0.50;96.90;;;;;;5001912;28;20578;-91
2023/03/03 08:01:31;;;;;;;107.73;75.70;;;0.60;97.00;;;;;;4980866;28;20271;-91
2023/03/03 08:03:57;;;;;;;101.63;71.00;;;0.60;97.00;;;;;;4980398;28;20182;-91
2023/03/03 08:06:37;;;;;;;114.50;71.57;;;0.70;97.00;;;;;;4984636;28;20208;-91
2023/03/03 08:09:09;;;;;;;97.13;70.00;;;0.70;97.00;;;;;;4987437;28;20169;-91
2023/03/03 08:11:46;;;;;;;117.90;67.20;;;0.70;97.00;;;;;;4987534;28;20181;-91
2023/03/03 08:14:14;;;;;;;110.80;70.03;;;0.80;97.00;;;;;;4986631;28;20569;-91
2023/03/03 08:16:40;;;;;;;101.37;65.73;;;0.90;97.00;;;;;;4981177;28;20297;-90
2023/03/03 08:19:06;;;;;;;112.90;63.97;;;1.00;97.10;;;;;;4991264;28;20193;-91
2023/03/03 08:21:34;;;;;;;133.43;64.93;;;1.00;97.10;;;;;;4989195;28;20216;-91
2023/03/03 08:23:59;;;;;;;103.27;63.17;;;1.10;97.10;;;;;;4988075;28;20595;-91
2023/03/03 08:26:25;;;;;;;95.30;59.17;;;1.20;97.10;;;;;;4987853;28;20193;-92
2023/03/03 08:28:52;;;;;;;95.60;64.83;;;1.20;97.10;;;;;;4988252;28;20178;-90
2023/03/03 08:31:18;;;;;;;119.13;64.13;;;1.20;97.10;;;;;;4982455;28;20213;-91
2023/03/03 08:33:44;;;;;;;115.97;67.93;;;1.20;97.10;;;;;;4987005;28;20174;-91
2023/03/03 08:36:10;;;;;;;96.50;63.43;;;1.30;97.10;;;;;;4983583;28;20201;-90
2023/03/03 08:38:36;;;;;;;100.83;65.00;;;1.30;97.10;;;;;;4982440;28;20232;-91
2023/03/03 08:41:03;;;;;;;132.20;67.13;;;1.30;97.10;;;;;;4987954;28;20258;-92
2023/03/03 08:43:28;;;;;;;132.47;63.93;;;1.40;97.10;;;;;;4981357;28;20190;-90
2023/03/03 08:45:58;;;;;;;84.83;60.60;;;1.30;97.10;;;;;;4980199;28;20204;-91
2023/03/03 08:48:25;;;;;;;109.20;62.60;;;1.40;97.10;;;;;;4998948;28;20178;-90
2023/03/03 08:50:51;;;;;;;96.63;61.67;;;1.50;97.10;;;;;;4996505;28;20249;-91
2023/03/03 08:53:18;;;;;;;81.60;60.43;;;1.40;97.10;;;;;;4978620;28;20550;-89
2023/03/03 08:55:45;;;;;;;75.53;63.13;;;1.40;97.10;;;;;;4977993;28;20189;-89
2023/03/03 08:58:10;;;;;;;88.37;63.17;;;1.50;97.10;;;;;;4985135;28;20598;-92
2023/03/03 09:00:37;;;;;;;109.50;62.37;;;1.50;97.10;;;;;;4985961;28;20178;-91
2023/03/03 09:03:04;;;;;;;77.67;60.47;;;1.50;97.10;;;;;;4983746;28;20188;-91
2023/03/03 09:05:30;;;;;;;96.43;67.90;;;1.60;97.10;;;;;;4978632;28;20182;-88
2023/03/03 09:07:56;;;;;;;108.13;67.03;;;1.60;97.10;;;;;;4980797;28;20198;-92
2023/03/03 09:10:29;;;;;;;122.07;72.57;;;1.70;97.20;;;;;;4980934;28;20209;-91
2023/03/03 09:13:00;;;;;;;131.23;67.47;;;1.70;97.20;;;;;;4988711;28;20166;-93
2023/03/03 09:15:34;;;;;;;141.67;73.47;;;1.80;97.20;;;;;;4997095;28;20185;-91
2023/03/03 09:18:11;;;;;;;115.63;69.17;;;1.80;97.20;;;;;;4988128;28;20587;-90
2023/03/03 09:20:49;;;;;;;137.50;75.17;;;1.80;97.20;;;;;;4977566;28;20232;-91
2023/03/03 09:23:30;;;;;;;109.90;68.50;;;2.00;97.20;;;;;;4982511;28;20181;-91
2023/03/03 09:25:57;;;;;;;105.97;66.50;;;2.10;97.20;;;;;;4987095;28;20174;-91
2023/03/03 09:28:26;;;;;;;131.67;73.83;;;2.10;97.20;;;;;;4980113;28;20663;-89
2023/03/03 09:30:55;;;;;;;99.50;75.40;;;2.10;97.20;;;;;;4977934;28;20707;-90
2023/03/03 09:33:27;;;;;;;111.73;78.57;;;2.10;97.20;;;;;;4986641;28;20190;-92
2023/03/03 09:36:18;;;;;;;115.53;74.73;;;2.30;97.20;;;;;;4990150;28;20166;-91
2023/03/03 09:38:44;;;;;;;124.23;80.53;;;2.40;97.20;;;;;;4992610;28;20273;-91
2023/03/03 09:41:36;;;;;;;128.40;79.87;;;2.40;97.20;;;;;;4985985;28;20266;-90
2023/03/03 09:44:17;;;;;;;128.67;84.60;;;2.50;97.20;;;;;;4994441;28;20158;-89
2023/03/03 09:47:10;;;;;;;140.57;87.40;;;2.40;97.20;;;;;;4994415;28;20675;-89
2023/03/03 09:49:38;;;;;;;156.73;86.83;;;2.50;97.20;;;;;;4994097;28;20178;-89
2023/03/03 09:52:14;;;;;;;119.77;80.53;;;2.60;97.30;;;;;;4993527;28;20166;-89
2023/03/03 09:55:10;;;;;;;122.93;82.93;;;2.50;97.20;;;;;;4977121;28;20558;-91
2023/03/03 09:57:54;;;;;;;120.37;82.70;;;2.50;97.20;;;;;;4976752;28;20281;-90
2023/03/03 10:00:44;;;;;;;113.23;83.90;;;2.60;97.20;;;;;;4976978;28;20257;-91
2023/03/03 10:03:36;;;;;;;130.17;85.23;;;2.70;97.20;;;;;;4977353;28;20170;-88
2023/03/03 10:06:23;;;;;;;129.43;83.70;;;2.60;97.30;;;;;;4977973;28;20170;-88
2023/03/03 10:09:10;;;;;;;139.50;84.60;;;2.80;97.30;;;;;;4977016;28;20257;-89
2023/03/03 10:11:41;;;;;;;135.47;88.80;;;2.90;97.30;;;;;;4978761;28;20208;-89
2023/03/03 10:14:47;;;;;;;115.73;84.60;;;3.00;97.30;;;;;;4979871;28;20166;-89
2023/03/03 10:17:32;;;;;;;119.50;79.07;;;3.10;97.30;;;;;;4961891;28;20745;-88
2023/03/03 10:20:42;;;;;;;111.77;81.70;;;3.10;97.30;;;;;;4995355;28;20636;-89
2023/03/03 10:23:19;;;;;;;119.70;86.43;;;3.10;97.30;;;;;;4899449;29;20182;-89
2023/03/03 10:26:03;;;;;;;101.00;81.27;;;3.20;97.30;;;;;;4899437;29;20181;-89
2023/03/03 10:28:58;;;;;;;110.87;87.03;;;3.10;97.30;;;;;;4950417;28;20182;-89
2023/03/03 10:31:45;;;;;;;111.17;90.13;;;3.20;97.30;;;;;;4976406;28;20575;-89
2023/03/03 10:34:20;;;;;;;97.63;85.03;;;3.30;97.30;;;;;;4977464;28;20228;-89
2023/03/03 10:37:08;;;;;;;101.17;90.30;;;3.40;97.30;;;;;;4976950;28;20243;-90
2023/03/03 10:39:56;;;;;;;99.10;89.63;;;3.30;97.30;;;;;;4977395;28;20543;-90
2023/03/03 10:42:51;;;;;;;92.87;84.37;;;3.30;97.30;;;;;;4994365;28;20695;-89
2023/03/03 10:45:54;;;;;;;97.37;88.27;;;3.50;97.30;;;;;;4994057;28;20278;-90
2023/03/03 10:48:46;;;;;;;97.67;89.13;;;3.60;97.30;;;;;;4993904;28;20179;-90
2023/03/03 10:51:45;;;;;;;98.83;91.30;;;3.60;97.30;;;;;;4976480;28;20194;-90
2023/03/03 10:54:42;;;;;;;109.87;101.17;;;3.60;97.30;;;;;;4976830;28;20646;-90
2023/03/03 10:57:23;;;;;;;110.80;102.97;;;3.70;97.30;;;;;;4976241;28;20628;-90
2023/03/03 11:00:06;;;;;;;114.73;106.43;;;3.80;97.30;;;;;;4993738;28;20205;-91
2023/03/03 11:02:52;;;;;;;109.07;101.27;;;3.90;97.30;;;;;;4978392;28;20197;-89
2023/03/03 11:05:28;;;;;;;117.00;109.00;;;3.90;97.30;;;;;;4979759;28;20178;-90
2023/03/03 11:08:06;;;;;;;122.43;113.03;;;4.00;97.20;;;;;;4979733;28;20268;-90
2023/03/03 11:11:01;;;;;;;121.70;112.83;;;4.00;97.20;;;;;;4979604;28;20198;-90
2023/03/03 11:13:35;;;;;;;127.30;118.40;;;4.20;97.20;;;;;;4997155;28;20163;-90
2023/03/03 11:16:21;;;;;;;129.13;119.70;;;4.20;97.20;;;;;;4979599;28;20565;-89
2023/03/03 11:19:15;;;;;;;131.00;122.10;;;4.30;97.20;;;;;;4979716;28;20190;-90
2023/03/03 11:22:01;;;;;;;133.73;124.23;;;4.30;97.10;;;;;;4979445;28;20180;-90
2023/03/03 11:24:54;;;;;;;129.27;119.70;;;4.40;97.10;;;;;;4979586;28;20170;-90
2023/03/03 11:27:30;;;;;;;130.73;121.27;;;4.50;97.00;;;;;;4996586;28;20200;-90
2023/03/03 11:30:01;;;;;;;123.30;114.80;;;4.50;97.00;;;;;;4996929;28;20184;-90
2023/03/03 11:32:37;;;;;;;120.40;112.10;;;4.70;97.00;;;;;;4979260;28;20176;-90
2023/03/03 11:35:15;;;;;;;110.83;103.23;;;4.70;96.90;;;;;;4979279;28;20576;-90
2023/03/03 11:37:56;;;;;;;93.63;86.17;;;4.80;96.90;;;;;;4980420;28;20267;-90
2023/03/03 11:40:31;;;;;;;85.53;79.83;;;4.80;96.80;;;;;;4979450;28;20168;-90
2023/03/03 11:43:33;;;;;;;75.77;70.23;;;4.80;96.60;;;;;;4979440;28;20169;-90
2023/03/03 11:46:05;;;;;;;61.60;56.53;;;4.80;96.30;;;;;;4911447;28;20191;-90
2023/03/03 11:48:52;;;;;;;53.30;49.13;;;4.80;95.90;;;;;;4979799;28;20681;-90
2023/03/03 11:51:57;;;;;;;52.80;48.77;;;4.80;95.40;;;;;;4980433;28;20621;-90
2023/03/03 11:54:29;;;;;;;52.13;48.00;;;4.90;95.40;;;;;;4996970;28;20220;-90
2023/03/03 11:57:08;;;;;;;51.90;47.97;;;5.00;94.80;;;;;;4997308;28;20203;-90
2023/03/03 11:59:49;;;;;;;48.23;44.60;;;5.10;94.50;;;;;;4983140;28;20239;-90
2023/03/03 12:02:42;;;;;;;47.37;43.23;;;5.10;94.20;;;;;;4997760;28;20204;-92
2023/03/03 12:05:19;;;;;;;48.80;44.87;;;5.20;93.40;;;;;;4980526;28;20261;-91
2023/03/03 12:07:51;;;;;;;44.70;41.20;;;5.20;93.30;;;;;;4979706;28;20204;-91
2023/03/03 12:10:48;;;;;;;43.77;40.57;;;5.20;93.00;;;;;;4982289;28;20201;-92
2023/03/03 12:13:39;;;;;;;42.43;38.90;;;5.30;92.70;;;;;;4968465;28;20185;-91
2023/03/03 12:16:14;;;;;;;39.20;35.83;;;5.40;92.40;;;;;;4998044;28;20171;-90
2023/03/03 12:18:49;;;;;;;38.53;34.73;;;5.40;92.20;;;;;;4979274;28;20578;-90
2023/03/03 12:21:19;;;;;;;38.97;35.40;;;5.40;92.10;;;;;;4979820;28;20189;-91
2023/03/03 12:24:03;;;;;;;38.23;35.30;;;5.50;92.10;;;;;;4979725;28;20181;-90
2023/03/03 12:26:41;;;;;;;34.70;32.20;;;5.50;91.90;;;;;;4979663;28;20291;-91
2023/03/03 12:29:17;;;;;;;33.47;30.53;;;5.60;91.60;;;;;;4998138;28;20164;-90
2023/03/03 12:32:03;;;;;;;27.80;25.50;;;5.60;91.40;;;;;;4987542;28;20178;-91
2023/03/03 12:34:49;;;;;;;25.87;23.60;;;5.60;90.50;;;;;;4992368;28;20170;-91
2023/03/03 12:37:22;;;;;;;20.00;18.53;;;5.60;90.00;;;;;;4979979;28;20197;-90
2023/03/03 12:39:57;;;;;;;20.97;19.13;;;5.50;88.30;;;;;;5000457;28;20190;-91
2023/03/03 12:42:57;;;;;;;19.80;17.97;;;5.60;87.90;;;;;;4983084;28;20184;-91
2023/03/03 12:45:35;;;;;;;18.77;16.97;;;5.60;87.50;;;;;;4986121;28;20193;-91
2023/03/03 12:48:33;;;;;;;18.37;16.83;;;5.70;87.20;;;;;;4986974;28;20198;-91